Archival Weather

Snohomish County (Paine Fld)

Everett, Washington (KPAE)

Report from: Thursday, November 2, 2023 12:53 PM PDT
Current time: Sunday, June 16, 2024 11:26 PM PDT

Current weather – Weather history – Daily summaries
Weather forecast

Temperature15.0°C (59.0°F)
Dew point12.8°C (55.0°F)
Winds 25 kts (12.9 m/s, 28.8 mph) South-Southwest (200°)
Wind gusts 34 kts (17.5 m/s, 39.1 mph)
Peak wind 37 kts (19 m/s, 42.6 mph) South-Southwest (210°) at 18:59
Visibility10 mi. (16.1 km)
Clouds Ceiling: Broken clouds 800 ft. (244 m)
Overcast 1,100 ft. (335 m)
Altimeter29.84 in.Hg (1010 mB)
Relative humidity87 %
Density altitude306 ft. (93 m)
Sea-level pressure101.0 kPa (1010 mB, 29.83 in.Hg)
Remarks Automated weather observing station with precipitation discriminator
Flight conditions Instrument Meteorological Conditions
Raw dataKPAE 021953Z 20025G34KT 10SM BKN008 OVC011 15/13 A2984 RMK AO2 PK WND 21037/1859 SLP103 T01500128
An error has occurred. This application may no longer respond until reloaded. Reload 🗙